createdAt,value
2023-05-21T00:04:01.090Z,16.02
2023-05-21T00:09:06.563Z,16.23
2023-05-21T00:14:09.775Z,16.50
2023-05-21T00:19:13.535Z,16.63
2023-05-21T00:24:16.388Z,16.62
2023-05-21T00:29:19.188Z,16.57
2023-05-21T00:34:22.297Z,16.52
2023-05-21T00:39:25.780Z,16.50
2023-05-21T00:44:34.195Z,16.57
2023-05-21T00:49:37.362Z,16.55
2023-05-21T00:54:40.398Z,16.42
2023-05-21T00:59:44.425Z,16.31
2023-05-21T01:04:47.310Z,16.18
2023-05-21T01:09:50.136Z,16.03
2023-05-21T01:14:54.260Z,15.88
2023-05-21T01:19:59.079Z,15.73
2023-05-21T01:25:03.993Z,15.57
2023-05-21T01:30:08.505Z,15.48
2023-05-21T01:35:26.319Z,15.32
2023-05-21T01:40:46.429Z,15.17
2023-05-21T01:45:54.142Z,15.03
2023-05-21T01:51:05.062Z,14.90
2023-05-21T01:56:08.596Z,14.76
2023-05-21T02:01:12.090Z,14.71
2023-05-21T02:06:15.215Z,14.63
2023-05-21T02:11:18.210Z,14.58
2023-05-21T02:16:22.865Z,14.49
2023-05-21T02:21:26.443Z,14.38
2023-05-21T02:26:29.425Z,14.32
2023-05-21T02:31:32.367Z,14.27
2023-05-21T02:36:36.141Z,14.22
2023-05-21T02:41:39.531Z,14.15
2023-05-21T02:46:42.615Z,14.09
2023-05-21T02:51:45.407Z,14.04
2023-05-21T02:56:48.519Z,14.05
2023-05-21T03:01:51.407Z,14.04
2023-05-21T03:06:55.254Z,14.01
2023-05-21T03:11:58.278Z,13.94
2023-05-21T03:17:03.486Z,13.91
2023-05-21T03:22:06.892Z,13.83
2023-05-21T03:27:09.924Z,13.78
2023-05-21T03:32:13.732Z,13.77
2023-05-21T03:37:16.828Z,13.82
2023-05-21T03:42:19.639Z,13.84
2023-05-21T03:47:22.888Z,13.88
2023-05-21T03:52:25.711Z,13.92
2023-05-21T03:57:28.890Z,13.98
2023-05-21T04:02:32.728Z,14.03
2023-05-21T04:07:38.306Z,14.11
2023-05-21T04:12:41.428Z,14.23
2023-05-21T04:17:45.474Z,14.42
2023-05-21T04:22:49.014Z,14.59
2023-05-21T04:27:52.672Z,14.78
2023-05-21T04:32:55.611Z,14.92
2023-05-21T04:37:58.517Z,15.14
2023-05-21T04:43:02.198Z,15.43
2023-05-21T04:48:05.609Z,15.75
2023-05-21T04:53:08.882Z,16.06
2023-05-21T04:58:11.967Z,16.35
2023-05-21T05:03:15.115Z,16.55
2023-05-21T05:08:18.176Z,16.81
2023-05-21T05:13:21.340Z,17.03
2023-05-21T05:18:24.530Z,17.19
2023-05-21T05:23:27.400Z,17.36
2023-05-21T05:28:30.163Z,17.51
2023-05-21T05:33:32.976Z,17.67
2023-05-21T05:38:36.482Z,17.80
2023-05-21T05:43:39.508Z,17.91
2023-05-21T05:48:42.467Z,18.05
2023-05-21T05:53:45.712Z,18.18
2023-05-21T05:58:48.682Z,18.34
2023-05-21T06:03:52.419Z,18.51
2023-05-21T06:08:55.628Z,18.71
2023-05-21T06:14:01.539Z,18.92
2023-05-21T06:19:04.666Z,19.12
2023-05-21T06:24:07.757Z,19.35
2023-05-21T06:29:10.664Z,19.53
2023-05-21T06:34:13.698Z,19.82
2023-05-21T06:39:17.353Z,20.02
2023-05-21T06:44:20.792Z,20.26
2023-05-21T06:49:23.858Z,20.44
2023-05-21T06:54:27.212Z,20.67
2023-05-21T06:59:30.459Z,20.82
2023-05-21T07:04:35.549Z,20.91
2023-05-21T07:09:38.472Z,21.07
2023-05-21T07:14:42.943Z,21.23
2023-05-21T07:19:46.181Z,21.35
2023-05-21T07:24:49.213Z,21.54
2023-05-21T07:29:52.092Z,21.61
2023-05-21T07:34:55.904Z,21.80
2023-05-21T08:08:07.935Z,22.37
2023-05-21T08:13:16.745Z,22.46
2023-05-21T08:18:19.665Z,22.54
2023-05-21T08:23:22.888Z,22.73
2023-05-21T08:28:27.701Z,22.88
2023-05-21T08:33:30.968Z,22.94
2023-05-21T08:38:36.956Z,22.97
2023-05-21T08:43:40.816Z,22.96
2023-05-21T10:14:34.797Z,24.53
2023-05-21T10:19:39.448Z,24.74
2023-05-21T10:24:44.466Z,24.79
2023-05-21T10:29:48.993Z,24.90
2023-05-21T10:34:58.562Z,25.00
2023-05-21T10:40:02.431Z,25.10
2023-05-21T10:45:48.435Z,25.27
2023-05-21T10:51:36.239Z,25.49
2023-05-21T10:57:22.051Z,25.54
2023-05-21T11:02:27.504Z,25.69
2023-05-21T11:07:56.877Z,25.54
2023-05-21T11:13:17.184Z,25.50
2023-05-21T11:18:20.240Z,25.48
2023-05-21T11:23:24.019Z,25.54
2023-05-21T11:28:34.415Z,25.64
2023-05-21T11:33:37.657Z,25.69
2023-05-21T11:38:40.890Z,25.66
2023-05-21T11:43:44.394Z,25.77
2023-05-21T11:48:48.205Z,25.69
2023-05-21T11:53:51.811Z,25.68
2023-05-21T11:58:55.959Z,25.67
2023-05-21T12:03:58.998Z,25.88
2023-05-21T12:09:02.172Z,26.01
2023-05-21T12:14:09.306Z,25.99
2023-05-21T12:19:12.796Z,25.92
2023-05-21T12:24:16.501Z,26.22
2023-05-21T12:29:20.439Z,26.46
2023-05-21T12:34:49.826Z,26.55
2023-05-21T12:39:55.922Z,26.73
2023-05-21T12:44:59.095Z,27.01
2023-05-21T12:50:08.562Z,27.18
2023-05-21T12:55:15.053Z,27.31
2023-05-21T13:00:24.342Z,27.19
2023-05-21T13:05:27.696Z,27.50
2023-05-21T13:10:30.654Z,27.68
2023-05-21T13:15:33.771Z,27.62
2023-05-21T13:20:37.382Z,27.71
2023-05-21T13:25:40.640Z,27.82
2023-05-21T13:30:43.742Z,27.65
2023-05-21T13:35:51.209Z,27.56
2023-05-21T13:40:54.199Z,27.57
2023-05-21T13:45:57.019Z,27.80
2023-05-21T13:51:01.294Z,27.95
2023-05-21T13:56:05.232Z,27.93
2023-05-21T14:01:08.387Z,27.68
2023-05-21T14:06:12.004Z,27.30
2023-05-21T14:11:14.898Z,27.39
2023-05-21T14:16:18.568Z,27.56
2023-05-21T14:21:21.878Z,27.43
2023-05-21T14:26:26.857Z,27.30
2023-05-21T14:31:30.354Z,27.45
2023-05-21T14:36:33.373Z,27.64
2023-05-21T14:41:39.845Z,27.85
2023-05-21T14:46:42.759Z,28.04
2023-05-21T14:51:47.557Z,28.21
2023-05-21T14:56:53.616Z,28.27
2023-05-21T15:01:56.835Z,28.30
2023-05-21T15:07:00.303Z,28.46
2023-05-21T15:12:04.337Z,28.99
2023-05-21T15:17:07.726Z,29.27
2023-05-21T15:22:11.119Z,29.42
2023-05-21T15:27:13.968Z,29.43
2023-05-21T15:32:17.918Z,29.37
2023-05-21T15:37:21.784Z,29.20
2023-05-21T15:42:24.864Z,29.14
2023-05-21T15:47:27.985Z,29.27
2023-05-21T15:52:31.002Z,29.37
2023-05-21T15:57:34.063Z,29.23
2023-05-21T16:02:37.306Z,29.02
2023-05-21T16:07:42.215Z,28.95
2023-05-21T16:12:45.397Z,28.83
2023-05-21T16:17:48.591Z,28.69
2023-05-21T16:22:51.487Z,28.50
2023-05-21T16:27:55.232Z,28.18
2023-05-21T16:32:58.249Z,27.78
2023-05-21T16:38:01.710Z,27.43
2023-05-21T16:43:04.979Z,27.16
2023-05-21T16:48:08.709Z,26.95
2023-05-21T16:53:11.859Z,26.76
2023-05-21T16:58:15.158Z,26.57
2023-05-21T17:03:18.170Z,26.28
2023-05-21T17:08:21.179Z,26.04
2023-05-21T17:13:24.272Z,25.86
2023-05-21T17:18:27.295Z,25.65
2023-05-21T17:23:30.541Z,25.47
2023-05-21T17:28:33.509Z,25.24
2023-05-21T17:33:38.171Z,25.04
2023-05-21T17:38:41.153Z,24.76
2023-05-21T17:43:44.280Z,24.37
2023-05-21T17:48:47.324Z,23.98
2023-05-21T17:53:50.455Z,23.67
2023-05-21T17:58:53.680Z,23.32
2023-05-21T18:03:56.721Z,23.06
2023-05-21T18:08:59.703Z,22.71
2023-05-21T18:14:04.025Z,22.42
2023-05-21T18:19:07.404Z,22.11
2023-05-21T18:24:10.520Z,21.78
2023-05-21T18:29:15.035Z,21.49
2023-05-21T18:34:18.104Z,21.23
2023-05-21T18:39:24.779Z,20.97
2023-05-21T18:44:27.893Z,20.78
2023-05-21T18:49:34.005Z,20.52
2023-05-21T18:54:36.961Z,20.31
2023-05-21T18:59:40.861Z,20.14
2023-05-21T19:04:46.881Z,19.97
2023-05-21T19:09:49.960Z,19.83
2023-05-21T19:14:53.526Z,19.65
2023-05-21T19:19:56.824Z,19.43
2023-05-21T19:25:00.769Z,19.24
2023-05-21T19:30:04.213Z,19.09
2023-05-21T19:35:07.903Z,18.99
2023-05-21T19:40:11.320Z,18.93
2023-05-21T19:45:15.588Z,18.82
2023-05-21T19:50:19.179Z,18.61
2023-05-21T19:55:22.967Z,18.51
2023-05-21T20:00:26.403Z,18.40
2023-05-21T20:05:29.407Z,18.28
2023-05-21T20:10:32.462Z,18.17
2023-05-21T20:15:35.950Z,18.08
2023-05-21T20:20:39.874Z,17.97
2023-05-21T20:25:43.217Z,17.88
2023-05-21T20:30:59.033Z,17.83
2023-05-21T20:36:03.463Z,17.81
2023-05-21T20:41:06.284Z,17.84
2023-05-21T20:46:09.402Z,17.82
2023-05-21T20:51:12.491Z,17.78
2023-05-21T20:56:21.687Z,17.77
2023-05-21T21:01:30.559Z,17.77
2023-05-21T21:06:33.871Z,17.71
2023-05-21T21:11:37.174Z,17.62
2023-05-21T21:16:40.131Z,17.56
2023-05-21T21:21:43.114Z,17.42
2023-05-21T21:26:46.104Z,17.39
2023-05-21T21:31:50.835Z,17.39
2023-05-21T21:36:54.477Z,17.42
2023-05-21T21:41:57.556Z,17.38
2023-05-21T21:47:00.851Z,17.36
2023-05-21T21:52:04.096Z,17.39
2023-05-21T21:57:07.061Z,17.42
2023-05-21T22:02:10.004Z,17.42
2023-05-21T22:07:16.950Z,17.39
2023-05-21T22:12:20.037Z,17.35
2023-05-21T22:17:23.504Z,17.32
2023-05-21T22:22:26.935Z,17.26
2023-05-21T22:27:29.925Z,17.21
2023-05-21T22:32:33.619Z,17.17
2023-05-21T22:37:37.432Z,17.13
2023-05-21T22:42:40.843Z,17.09
2023-05-21T22:47:43.876Z,17.08
2023-05-21T22:52:46.967Z,17.02
2023-05-21T22:57:49.900Z,16.94
2023-05-21T23:02:54.486Z,16.85
2023-05-21T23:07:57.982Z,16.75
2023-05-21T23:13:00.670Z,16.70
2023-05-21T23:18:04.022Z,16.64
2023-05-21T23:23:07.595Z,16.67
2023-05-21T23:28:10.797Z,16.69
2023-05-21T23:33:14.029Z,16.57
2023-05-21T23:38:17.121Z,16.48
2023-05-21T23:43:20.120Z,16.26
2023-05-21T23:48:23.105Z,16.16
2023-05-21T23:53:26.393Z,15.99
2023-05-21T23:58:29.488Z,15.84
